createdAt,value
2018-02-19T00:01:59.203Z,96801.47
2018-02-19T00:04:27.197Z,96825.20
2018-02-19T00:06:54.814Z,96813.71
2018-02-19T00:09:22.409Z,96810.28
2018-02-19T00:11:50.018Z,96808.35
2018-02-19T00:14:17.695Z,96805.84
2018-02-19T00:16:45.287Z,96807.10
2018-02-19T00:19:12.979Z,96805.50
2018-02-19T00:21:40.596Z,96803.95
2018-02-19T00:24:08.191Z,96799.70
2018-02-19T00:26:36.071Z,96803.66
2018-02-19T00:29:04.913Z,96804.83
2018-02-19T00:31:32.522Z,96800.67
2018-02-19T00:34:00.100Z,96802.73
2018-02-19T00:36:27.748Z,96796.52
2018-02-19T00:38:55.372Z,96794.22
2018-02-19T00:41:22.973Z,96789.27
2018-02-19T00:43:50.561Z,96789.22
2018-02-19T00:46:18.205Z,96793.55
2018-02-19T00:48:45.807Z,96783.86
2018-02-19T00:51:13.463Z,96788.22
2018-02-19T00:53:41.078Z,96784.03
2018-02-19T00:56:08.753Z,96781.00
2018-02-19T00:58:36.384Z,96779.78
2018-02-19T01:01:04.010Z,96782.00
2018-02-19T01:03:31.996Z,96786.58
2018-02-19T01:06:04.052Z,96788.05
2018-02-19T01:08:31.647Z,96785.74
2018-02-19T01:10:59.253Z,96781.88
2018-02-19T01:13:27.761Z,96776.13
2018-02-19T01:15:55.362Z,96770.80
2018-02-19T01:18:23.279Z,96773.44
2018-02-19T01:20:50.864Z,96772.14
2018-02-19T01:23:18.621Z,96764.25
2018-02-19T01:25:46.656Z,96768.15
2018-02-19T01:28:14.298Z,96761.02
2018-02-19T01:30:41.885Z,96755.97
2018-02-19T01:33:09.530Z,96759.40
2018-02-19T01:35:37.888Z,96754.81
2018-02-19T01:38:05.518Z,96758.34
2018-02-19T01:40:33.655Z,96758.22
2018-02-19T01:43:01.300Z,96750.92
2018-02-19T01:45:28.932Z,96743.84
2018-02-19T01:47:56.518Z,96742.97
2018-02-19T01:50:24.152Z,96744.91
2018-02-19T01:52:51.789Z,96745.17
2018-02-19T01:55:19.898Z,96742.05
2018-02-19T01:57:47.607Z,96746.04
2018-02-19T02:00:15.262Z,96743.50
2018-02-19T02:02:42.862Z,96740.22
2018-02-19T02:05:10.766Z,96730.42
2018-02-19T02:07:38.695Z,96727.97
2018-02-19T02:10:07.225Z,96720.69
2018-02-19T02:12:34.906Z,96721.91
2018-02-19T02:15:02.549Z,96718.66
2018-02-19T02:17:30.454Z,96711.94
2018-02-19T02:19:58.116Z,96701.22
2018-02-19T02:22:25.870Z,96706.33
2018-02-19T02:24:53.457Z,96702.23
2018-02-19T02:27:21.223Z,96701.31
2018-02-19T02:29:48.892Z,96692.86
2018-02-19T02:32:16.497Z,96695.84
2018-02-19T02:34:44.105Z,96696.95
2018-02-19T02:37:14.859Z,96693.16
2018-02-19T02:39:42.475Z,96691.52
2018-02-19T02:42:10.279Z,96685.25
2018-02-19T02:44:37.966Z,96687.58
2018-02-19T02:47:05.607Z,96687.70
2018-02-19T02:49:33.971Z,96681.19
2018-02-19T02:52:01.843Z,96681.84
2018-02-19T02:54:29.537Z,96678.78
2018-02-19T02:56:57.168Z,96675.55
2018-02-19T02:59:24.873Z,96683.84
2018-02-19T03:01:52.505Z,96683.20
2018-02-19T03:04:20.242Z,96680.47
2018-02-19T03:06:47.872Z,96678.17
2018-02-19T03:09:18.997Z,96681.92
2018-02-19T03:11:46.655Z,96686.63
2018-02-19T03:14:14.873Z,96685.00
2018-02-19T03:16:42.466Z,96679.99
2018-02-19T03:19:10.397Z,96677.19
2018-02-19T03:21:38.490Z,96682.73
2018-02-19T03:24:06.224Z,96680.44
2018-02-19T03:26:33.840Z,96682.62
2018-02-19T03:29:01.496Z,96677.75
2018-02-19T03:31:30.210Z,96676.28
2018-02-19T03:33:57.841Z,96671.71
2018-02-19T03:36:28.925Z,96672.96
2018-02-19T03:38:56.566Z,96667.58
2018-02-19T03:41:25.188Z,96670.67
2018-02-19T03:43:52.921Z,96662.51
2018-02-19T03:46:22.062Z,96666.31
2018-02-19T03:48:49.755Z,96666.25
2018-02-19T03:51:17.519Z,96669.23
2018-02-19T03:53:45.110Z,96668.47
2018-02-19T03:56:15.425Z,96664.86
2018-02-19T03:58:49.010Z,96662.44
2018-02-19T04:04:08.365Z,96657.70
2018-02-19T04:06:36.009Z,96654.87
2018-02-19T04:09:04.615Z,96651.23
2018-02-19T04:11:32.211Z,96646.37
2018-02-19T04:13:59.877Z,96641.46
2018-02-19T04:16:28.202Z,96641.06
2018-02-19T04:18:56.073Z,96641.93
2018-02-19T04:21:26.038Z,96642.75
2018-02-19T04:23:53.838Z,96640.73
2018-02-19T04:26:21.441Z,96629.97
2018-02-19T04:28:49.772Z,96626.66
2018-02-19T04:31:18.268Z,96628.01
2018-02-19T04:33:45.868Z,96629.30
2018-02-19T04:36:13.936Z,96623.52
2018-02-19T04:38:41.609Z,96619.36
2018-02-19T04:41:10.843Z,96620.21
2018-02-19T04:43:39.344Z,96618.13
2018-02-19T04:49:17.363Z,96612.28
2018-02-19T04:51:44.983Z,96611.91
2018-02-19T04:54:12.674Z,96617.31
2018-02-19T04:56:40.337Z,96611.93
2018-02-19T04:59:07.920Z,96614.00
2018-02-19T05:01:35.511Z,96611.89
2018-02-19T05:04:03.134Z,96605.69
2018-02-19T05:06:32.973Z,96606.53
2018-02-19T05:09:01.422Z,96605.75
2018-02-19T05:11:29.028Z,96610.77
2018-02-19T05:13:56.633Z,96605.00
2018-02-19T05:16:24.812Z,96603.80
2018-02-19T05:18:53.600Z,96605.45
2018-02-19T05:21:22.785Z,96600.91
2018-02-19T05:23:51.185Z,96598.83
2018-02-19T05:28:52.724Z,96603.40
2018-02-19T05:31:22.108Z,96595.95
2018-02-19T05:33:50.384Z,96600.88
2018-02-19T05:36:18.143Z,96600.08
2018-02-19T05:38:45.968Z,96598.02
2018-02-19T05:41:14.721Z,96593.13
2018-02-19T05:43:42.361Z,96593.55
2018-02-19T05:46:10.080Z,96595.23
2018-02-19T05:48:38.497Z,96596.03
2018-02-19T05:51:06.898Z,96592.69
2018-02-19T05:53:35.608Z,96591.88
2018-02-19T05:56:03.215Z,96586.90
2018-02-19T05:58:35.081Z,96585.26
2018-02-19T06:01:02.950Z,96585.27
2018-02-19T06:03:31.040Z,96580.70
2018-02-19T06:05:58.671Z,96575.72
2018-02-19T06:08:28.381Z,96582.28
2018-02-19T06:10:55.994Z,96580.63
2018-02-19T06:13:25.107Z,96582.75
2018-02-19T06:15:53.517Z,96582.73
2018-02-19T06:18:21.434Z,96583.13
2018-02-19T06:20:49.060Z,96581.89
2018-02-19T06:23:17.592Z,96579.42
2018-02-19T06:25:45.827Z,96581.11
2018-02-19T06:28:13.698Z,96571.53
2018-02-19T06:30:43.551Z,96576.91
2018-02-19T06:33:11.452Z,96571.09
2018-02-19T06:35:39.193Z,96568.97
2018-02-19T06:38:06.846Z,96568.05
2018-02-19T06:40:34.778Z,96563.35
2018-02-19T06:43:02.915Z,96563.70
2018-02-19T06:45:37.774Z,96559.48
2018-02-19T06:48:05.434Z,96554.03
2018-02-19T06:50:33.094Z,96557.31
2018-02-19T06:53:00.689Z,96550.66
2018-02-19T06:55:28.328Z,96549.72
2018-02-19T06:57:55.970Z,96542.12
2018-02-19T07:00:23.569Z,96541.19
2018-02-19T07:02:51.141Z,96544.08
2018-02-19T07:05:18.760Z,96538.84
2018-02-19T07:07:46.774Z,96542.91
2018-02-19T07:10:14.369Z,96538.75
2018-02-19T07:12:41.966Z,96540.93
2018-02-19T07:15:09.566Z,96544.03
2018-02-19T07:17:37.567Z,96538.44
2018-02-19T07:20:05.215Z,96535.22
2018-02-19T07:22:32.830Z,96535.86
2018-02-19T07:25:01.473Z,96533.25
2018-02-19T07:27:31.161Z,96534.25
2018-02-19T07:30:01.188Z,96523.89
2018-02-19T07:32:29.333Z,96521.52
2018-02-19T07:34:56.961Z,96521.22
2018-02-19T07:37:25.434Z,96515.52
2018-02-19T07:39:53.156Z,96518.80
2018-02-19T07:42:21.032Z,96518.16
2018-02-19T07:44:51.028Z,96511.47
2018-02-19T07:47:19.009Z,96506.53
2018-02-19T07:49:46.618Z,96505.25
2018-02-19T07:52:14.232Z,96492.43
2018-02-19T07:54:41.870Z,96493.96
2018-02-19T07:57:10.777Z,96495.23
2018-02-19T07:59:39.302Z,96485.63
2018-02-19T08:02:07.296Z,96490.33
2018-02-19T08:04:34.876Z,96484.63
2018-02-19T08:07:02.473Z,96485.85
2018-02-19T08:09:30.126Z,96481.83
2018-02-19T08:11:57.705Z,96486.83
2018-02-19T08:14:25.439Z,96474.36
2018-02-19T08:16:53.055Z,96474.99
2018-02-19T08:19:20.721Z,96476.90
2018-02-19T08:21:48.272Z,96469.98
2018-02-19T08:24:15.871Z,96462.63
2018-02-19T08:26:43.431Z,96463.16
2018-02-19T08:29:12.451Z,96461.31
2018-02-19T08:31:40.163Z,96449.67
2018-02-19T08:34:07.795Z,96442.73
2018-02-19T08:36:35.410Z,96437.98
2018-02-19T08:39:03.048Z,96436.42
2018-02-19T08:41:33.061Z,96436.19
2018-02-19T08:44:01.055Z,96426.87
2018-02-19T08:46:28.673Z,96425.75
2018-02-19T08:48:57.279Z,96427.78
2018-02-19T08:51:25.785Z,96425.04
2018-02-19T08:53:53.578Z,96419.59
2018-02-19T08:56:21.227Z,96415.88
2018-02-19T08:58:49.029Z,96414.25
2018-02-19T09:01:16.618Z,96412.83
2018-02-19T09:03:44.229Z,96411.34
2018-02-19T09:06:11.953Z,96411.20
2018-02-19T09:08:39.556Z,96409.14
2018-02-19T09:11:07.717Z,96413.45
2018-02-19T09:13:35.624Z,96407.53
2018-02-19T09:16:03.185Z,96412.41
2018-02-19T09:18:30.806Z,96409.22
2018-02-19T09:20:58.380Z,96416.99
2018-02-19T09:23:27.027Z,96408.39
2018-02-19T09:25:54.851Z,96407.23
2018-02-19T09:28:24.947Z,96401.63
2018-02-19T09:30:52.713Z,96402.50
2018-02-19T09:33:20.357Z,96395.72
2018-02-19T09:35:47.938Z,96383.97
2018-02-19T09:38:15.730Z,96389.08
2018-02-19T09:40:43.474Z,96389.86
2018-02-19T09:43:12.095Z,96395.11
2018-02-19T09:45:40.995Z,96392.89
2018-02-19T09:48:08.609Z,96387.34
2018-02-19T09:50:36.221Z,96388.37
2018-02-19T09:53:04.008Z,96383.34
2018-02-19T09:55:31.588Z,96381.77
2018-02-19T09:57:59.193Z,96381.41
2018-02-19T10:00:27.149Z,96385.30
2018-02-19T10:02:54.805Z,96382.04
2018-02-19T10:05:22.650Z,96380.44
2018-02-19T10:07:50.331Z,96377.43
2018-02-19T10:10:18.164Z,96376.36
2018-02-19T10:12:45.855Z,96378.75
2018-02-19T10:15:14.026Z,96381.42
2018-02-19T10:17:41.816Z,96380.67
2018-02-19T10:20:09.374Z,96369.37
2018-02-19T10:22:36.950Z,96370.45
2018-02-19T10:25:05.117Z,96366.11
2018-02-19T10:27:33.032Z,96362.31
2018-02-19T10:30:00.627Z,96357.16
2018-02-19T10:32:28.212Z,96357.06
2018-02-19T10:34:55.777Z,96350.33
2018-02-19T10:37:23.801Z,96355.75
2018-02-19T10:39:51.447Z,96353.30
2018-02-19T10:42:19.006Z,96359.95
2018-02-19T10:48:23.077Z,96355.14
2018-02-19T10:50:51.100Z,96353.89
2018-02-19T10:53:18.863Z,96353.81
2018-02-19T10:55:46.510Z,96349.22
2018-02-19T10:58:14.184Z,96341.65
2018-02-19T11:00:46.547Z,96344.48
2018-02-19T11:03:14.162Z,96334.83
2018-02-19T11:05:41.724Z,96339.42
2018-02-19T11:08:09.361Z,96340.80
2018-02-19T11:10:36.938Z,96334.16
2018-02-19T11:13:04.538Z,96324.68
2018-02-19T11:15:32.355Z,96329.02
2018-02-19T11:17:59.939Z,96324.75
2018-02-19T11:20:27.586Z,96319.06
2018-02-19T11:22:56.516Z,96319.13
2018-02-19T11:25:34.048Z,96311.84
2018-02-19T11:28:01.708Z,96314.91
2018-02-19T11:30:29.315Z,96315.67
2018-02-19T11:32:56.912Z,96303.91
2018-02-19T11:35:24.614Z,96311.68
2018-02-19T11:37:53.973Z,96307.48
2018-02-19T11:40:26.809Z,96298.72
2018-02-19T11:42:54.412Z,96305.93
2018-02-19T11:45:22.043Z,96300.62
2018-02-19T11:47:49.654Z,96296.14
2018-02-19T11:50:18.211Z,96289.98
2018-02-19T11:52:45.919Z,96290.50
2018-02-19T11:55:13.582Z,96290.00
2018-02-19T11:57:41.889Z,96281.37
2018-02-19T12:00:09.483Z,96293.10
2018-02-19T12:02:37.517Z,96275.49
2018-02-19T12:05:05.269Z,96266.30
2018-02-19T12:07:33.639Z,96257.20
2018-02-19T12:10:01.293Z,96250.41
2018-02-19T12:12:28.886Z,96260.44
2018-02-19T12:14:56.492Z,96253.36
2018-02-19T12:17:24.105Z,96247.06
2018-02-19T12:19:51.704Z,96235.32
2018-02-19T12:22:19.323Z,96231.60
2018-02-19T12:24:47.769Z,96233.58
2018-02-19T12:27:15.444Z,96231.24
2018-02-19T12:29:43.018Z,96231.82
2018-02-19T12:32:10.751Z,96234.62
2018-02-19T12:34:38.341Z,96227.14
2018-02-19T12:37:06.012Z,96232.27
2018-02-19T12:39:33.818Z,96225.44
2018-02-19T12:42:01.425Z,96221.69
2018-02-19T12:44:29.616Z,96217.97
2018-02-19T12:46:57.268Z,96221.02
2018-02-19T12:49:24.913Z,96217.84
2018-02-19T12:51:52.531Z,96223.33
2018-02-19T12:54:20.145Z,96220.52
2018-02-19T12:56:47.794Z,96222.08
2018-02-19T12:59:15.726Z,96216.59
2018-02-19T13:01:43.399Z,96216.52
2018-02-19T13:04:11.392Z,96209.96
2018-02-19T13:06:38.978Z,96208.11
2018-02-19T13:09:07.216Z,96181.72
2018-02-19T13:11:34.869Z,96204.16
2018-02-19T13:14:02.581Z,96205.96
2018-02-19T13:16:30.709Z,96204.56
2018-02-19T13:18:58.649Z,96206.53
2018-02-19T13:21:27.511Z,96207.55
2018-02-19T13:23:55.180Z,96196.71
2018-02-19T13:26:22.789Z,96200.09
2018-02-19T13:28:50.455Z,96199.55
2018-02-19T13:31:18.061Z,96187.12
2018-02-19T13:33:45.848Z,96192.81
2018-02-19T13:36:13.402Z,96181.75
2018-02-19T13:38:41.007Z,96180.31
2018-02-19T13:41:08.780Z,96186.41
2018-02-19T13:43:36.601Z,96188.82
2018-02-19T13:46:04.190Z,96187.28
2018-02-19T13:48:31.795Z,96180.47
2018-02-19T13:50:59.389Z,96179.00
2018-02-19T13:53:26.967Z,96181.11
2018-02-19T13:56:15.587Z,96173.55
2018-02-19T13:58:43.182Z,96173.72
2018-02-19T14:01:10.756Z,96171.00
2018-02-19T14:03:38.340Z,96171.29
2018-02-19T14:06:05.926Z,96167.28
2018-02-19T14:08:33.620Z,96165.18
2018-02-19T14:11:01.203Z,96158.73
2018-02-19T14:13:29.549Z,96160.44
2018-02-19T14:15:57.125Z,96155.25
2018-02-19T14:18:24.709Z,96149.94
2018-02-19T14:20:52.344Z,96145.84
2018-02-19T14:23:19.900Z,96151.51
2018-02-19T14:25:47.785Z,96147.41
2018-02-19T14:28:15.444Z,96153.67
2018-02-19T14:30:43.014Z,96142.74
2018-02-19T14:33:12.326Z,96145.80
2018-02-19T14:35:39.928Z,96144.47
2018-02-19T14:38:07.541Z,96141.16
2018-02-19T14:40:35.676Z,96140.60
2018-02-19T14:43:03.280Z,96137.44
2018-02-19T14:45:31.131Z,96138.94
2018-02-19T14:47:58.739Z,96134.36
2018-02-19T14:50:26.370Z,96135.08
2018-02-19T14:52:53.961Z,96136.64
2018-02-19T14:55:21.527Z,96131.49
2018-02-19T14:57:49.151Z,96132.85
2018-02-19T15:00:16.730Z,96133.00
2018-02-19T15:02:44.356Z,96130.48
2018-02-19T15:05:22.193Z,96123.86
2018-02-19T15:07:56.878Z,96123.93
2018-02-19T15:10:26.282Z,96126.56
2018-02-19T15:12:53.854Z,96126.59
2018-02-19T15:15:24.094Z,96124.00
2018-02-19T15:17:52.028Z,96125.30
2018-02-19T15:20:20.288Z,96120.61
2018-02-19T15:22:50.669Z,96116.64
2018-02-19T15:25:23.805Z,96120.17
2018-02-19T15:27:52.786Z,96114.36
2018-02-19T15:30:20.746Z,96117.31
2018-02-19T15:32:48.391Z,96111.02
2018-02-19T15:35:20.121Z,96107.94
2018-02-19T15:37:49.571Z,96110.33
2018-02-19T15:40:17.157Z,96111.58
2018-02-19T15:42:56.910Z,96103.24
2018-02-19T15:45:28.512Z,96109.60
2018-02-19T15:50:36.980Z,96113.92
2018-02-19T15:53:06.410Z,96104.59
2018-02-19T15:55:39.048Z,96107.17
2018-02-19T15:58:17.879Z,96107.56
2018-02-19T16:00:52.874Z,96108.56
2018-02-19T16:03:23.890Z,96106.47
2018-02-19T16:05:53.087Z,96104.59
2018-02-19T16:08:25.933Z,96105.15
2018-02-19T16:11:01.696Z,96101.31
2018-02-19T16:13:37.936Z,96103.99
2018-02-19T16:16:05.560Z,96104.82
2018-02-19T16:18:36.771Z,96103.61
2018-02-19T16:21:04.412Z,96101.72
2018-02-19T16:23:39.494Z,96106.45
2018-02-19T16:26:07.452Z,96097.81
2018-02-19T16:28:35.065Z,96100.94
2018-02-19T16:31:06.298Z,96097.20
2018-02-19T16:36:14.324Z,96104.19
2018-02-19T16:38:44.415Z,96100.63
2018-02-19T16:41:15.400Z,96102.66
2018-02-19T16:43:45.326Z,96105.14
2018-02-19T16:46:15.995Z,96103.06
2018-02-19T16:48:47.128Z,96105.27
2018-02-19T16:51:20.169Z,96102.95
2018-02-19T16:53:49.278Z,96101.81
2018-02-19T16:56:20.708Z,96101.85
2018-02-19T16:58:58.277Z,96107.56
2018-02-19T17:01:29.385Z,96104.03
2018-02-19T17:03:57.829Z,96103.05
2018-02-19T17:09:16.320Z,96099.98
2018-02-19T17:14:23.406Z,96096.52
2018-02-19T17:16:53.959Z,96088.86
2018-02-19T17:19:23.340Z,96091.73
2018-02-19T17:24:28.456Z,96090.88
2018-02-19T17:26:57.601Z,96085.66
2018-02-19T17:29:25.658Z,96089.77
2018-02-19T17:31:53.835Z,96085.45
2018-02-19T17:39:51.521Z,96081.67
2018-02-19T17:42:26.550Z,96080.41
2018-02-19T17:47:41.378Z,96076.37
2018-02-19T17:50:09.294Z,96076.73
2018-02-19T17:52:36.953Z,96078.09
2018-02-19T17:55:06.306Z,96073.30
2018-02-19T17:57:34.196Z,96078.99
2018-02-19T18:00:01.859Z,96079.40
2018-02-19T18:02:29.441Z,96080.72
2018-02-19T18:04:57.085Z,96076.56
2018-02-19T18:07:27.602Z,96078.09
2018-02-19T18:09:55.360Z,96081.40
2018-02-19T18:12:24.009Z,96080.25
2018-02-19T18:14:52.548Z,96080.19
2018-02-19T18:17:24.684Z,96083.66
2018-02-19T18:19:52.356Z,96082.09
2018-02-19T18:25:06.107Z,96086.50
2018-02-19T18:27:33.762Z,96089.69
2018-02-19T18:32:41.913Z,96080.68
2018-02-19T18:35:09.563Z,96079.36
2018-02-19T18:37:37.146Z,96075.61
2018-02-19T18:40:04.753Z,96075.96
2018-02-19T18:42:32.358Z,96076.34
2018-02-19T18:45:00.000Z,96068.44
2018-02-19T18:50:03.463Z,96073.61
2018-02-19T18:52:32.233Z,96076.42
2018-02-19T18:54:59.821Z,96076.37
2018-02-19T18:57:27.423Z,96076.50
2018-02-19T18:59:55.254Z,96076.56
2018-02-19T19:02:22.851Z,96085.00
2018-02-19T19:04:50.842Z,96086.20
2018-02-19T19:07:30.119Z,96082.68
2018-02-19T19:10:09.522Z,96080.73
2018-02-19T19:12:37.134Z,96079.20
2018-02-19T19:15:04.767Z,96083.66
2018-02-19T19:17:32.358Z,96081.20
2018-02-19T19:19:59.965Z,96083.35
2018-02-19T19:22:27.601Z,96080.00
2018-02-19T19:24:55.217Z,96082.80
2018-02-19T19:27:22.838Z,96088.20
2018-02-19T19:29:50.469Z,96085.94
2018-02-19T19:32:18.074Z,96084.41
2018-02-19T19:34:45.664Z,96080.27
2018-02-19T19:37:13.253Z,96071.33
2018-02-19T19:39:40.832Z,96070.03
2018-02-19T19:42:08.455Z,96075.52
2018-02-19T19:44:36.045Z,96072.16
2018-02-19T19:47:03.694Z,96070.86
2018-02-19T19:49:31.290Z,96068.23
2018-02-19T19:51:58.897Z,96053.75
2018-02-19T19:54:26.465Z,96057.05
2018-02-19T19:56:54.042Z,96046.27
2018-02-19T19:59:21.855Z,96048.18
2018-02-19T20:01:49.491Z,96040.59
2018-02-19T20:04:17.094Z,96030.52
2018-02-19T20:06:44.846Z,96032.79
2018-02-19T20:09:12.434Z,96036.70
2018-02-19T20:11:40.021Z,96023.21
2018-02-19T20:14:07.825Z,96034.78
2018-02-19T20:16:35.416Z,96033.11
2018-02-19T20:19:03.029Z,96033.56
2018-02-19T20:21:30.647Z,96025.38
2018-02-19T20:23:58.231Z,96026.07
2018-02-19T20:26:25.835Z,96021.75
2018-02-19T20:28:53.420Z,96022.41
2018-02-19T20:31:21.084Z,96022.78
2018-02-19T20:33:48.716Z,96024.27
2018-02-19T20:36:16.331Z,96025.34
2018-02-19T20:38:43.897Z,96021.53
2018-02-19T20:41:11.516Z,96020.88
2018-02-19T20:43:39.122Z,96020.50
2018-02-19T20:46:06.689Z,96021.05
2018-02-19T20:48:34.260Z,96020.45
2018-02-19T20:51:01.856Z,96009.21
2018-02-19T20:53:29.437Z,96004.31
2018-02-19T20:55:57.043Z,96011.50
2018-02-19T20:58:24.673Z,96013.91
2018-02-19T21:00:52.282Z,96009.19
2018-02-19T21:03:19.886Z,96008.23
2018-02-19T21:05:48.182Z,96001.78
2018-02-19T21:08:15.744Z,95990.53
2018-02-19T21:10:43.349Z,95984.66
2018-02-19T21:13:10.980Z,95986.78
2018-02-19T21:15:38.586Z,95989.95
2018-02-19T21:18:06.678Z,95994.11
2018-02-19T21:20:34.262Z,95994.65
2018-02-19T21:23:01.904Z,95992.19
2018-02-19T21:25:30.508Z,95988.42
2018-02-19T21:27:58.228Z,95983.95
2018-02-19T21:30:25.860Z,95980.11
2018-02-19T21:32:53.582Z,95975.00
2018-02-19T21:35:21.199Z,95981.02
2018-02-19T21:37:48.898Z,95980.59
2018-02-19T21:40:16.486Z,95985.36
2018-02-19T21:42:44.065Z,95991.28
2018-02-19T21:45:11.772Z,95994.78
2018-02-19T21:47:39.458Z,95996.30
2018-02-19T21:50:07.134Z,95997.75
2018-02-19T21:52:34.750Z,95994.63
2018-02-19T21:55:02.392Z,95994.35
2018-02-19T21:57:29.991Z,95993.01
2018-02-19T21:59:57.920Z,95990.70
2018-02-19T22:02:25.535Z,95995.26
2018-02-19T22:07:33.980Z,96006.34
2018-02-19T22:10:01.671Z,96007.66
2018-02-19T22:12:29.311Z,96009.16
2018-02-19T22:14:56.904Z,96007.27
2018-02-19T22:17:24.606Z,96009.38
2018-02-19T22:19:52.246Z,95997.23
2018-02-19T22:22:19.860Z,95994.42
2018-02-19T22:24:47.475Z,95995.05
2018-02-19T22:27:15.213Z,95990.14
2018-02-19T22:29:42.885Z,95988.56
2018-02-19T22:32:10.921Z,95986.06
2018-02-19T22:34:38.575Z,95982.23
2018-02-19T22:37:06.507Z,95987.39
2018-02-19T22:39:34.098Z,95982.06
2018-02-19T22:42:01.725Z,95987.49
2018-02-19T22:44:29.342Z,95975.80
2018-02-19T22:46:56.909Z,95976.20
2018-02-19T22:49:25.023Z,95981.97
2018-02-19T22:51:52.648Z,95974.76
2018-02-19T22:54:20.326Z,95979.40
2018-02-19T22:56:47.967Z,95981.82
2018-02-19T22:59:15.563Z,95978.42
2018-02-19T23:01:45.679Z,95981.30
2018-02-19T23:04:13.366Z,95985.42
2018-02-19T23:06:42.266Z,95989.03
2018-02-19T23:09:09.872Z,95980.84
2018-02-19T23:11:38.469Z,95986.73
2018-02-19T23:14:06.122Z,95979.63
2018-02-19T23:16:36.288Z,95982.50
2018-02-19T23:19:03.951Z,95983.45
2018-02-19T23:21:33.300Z,95988.05
2018-02-19T23:24:01.258Z,95985.53
2018-02-19T23:26:28.874Z,95988.56
2018-02-19T23:28:58.815Z,95983.80
2018-02-19T23:31:29.027Z,95980.20
2018-02-19T23:33:56.700Z,95978.27
2018-02-19T23:36:24.307Z,95971.27
2018-02-19T23:38:51.904Z,95970.43
2018-02-19T23:41:19.534Z,95967.97
2018-02-19T23:43:47.150Z,95959.14
2018-02-19T23:46:14.765Z,95952.59
2018-02-19T23:48:43.891Z,95951.56
2018-02-19T23:51:12.290Z,95952.50
2018-02-19T23:53:39.915Z,95948.00
2018-02-19T23:56:07.556Z,95940.84
2018-02-19T23:58:35.165Z,95941.09
